Ds Promoter — D5BX3 — position and weather

sailwx.info

Track history (hours):
 
Tides and Currents Weather Stations Pressure Air Temp Water Temp Dewpoint Dewpoint Depression Visibility Wind Speed Wind Dir Waves Ship Positions

Ds Promoter

Last reported at 2017-Dec-12 19:58 UTC. Time now 2018-Jan-18 00:12 UTC.
Position N 09°12' W 079°54'.
Warning: this ship's position is 36 days out of date.

Length 228 m; draft 11.9 m.

Type: Tanker. MMSI: 636092413.

Date/timePositionNaut miles runAvg speedWind from/ knotsBaromVisibWave heightAir tempDewpointWater temp
2017-Dec-12 19:58N 09°12' W 079°54'3 7.0
2017-Dec-12 19:28N 09°15' W 079°55'2 3.3
2017-Dec-12 19:00N 09°16' W 079°55'0 0.3
2017-Dec-12 18:30N 09°16' W 079°55'0 0.3
2017-Dec-12 18:00N 09°17' W 079°55'0 0.2
2017-Dec-12 17:30N 09°17' W 079°55'0 0.3
2017-Dec-12 17:00N 09°17' W 079°55'0 0.1
2017-Dec-12 16:30N 09°17' W 079°55'0 0.7
2017-Dec-12 16:00N 09°17' W 079°55'2 3.7
2017-Dec-12 15:30N 09°19' W 079°55'4 7.2
2017-Dec-12 15:01N 09°23' W 079°55'0 0.8
2017-Dec-12 14:30N 09°22' W 079°55'2 3.3
2017-Dec-12 14:00N 09°24' W 079°55'3 7.0
2017-Dec-12 13:30N 09°27' W 079°55'2 0.2
2017-Dec-11 23:37N 09°30' W 079°56'0 0.0
2017-Dec-11 22:16N 09°30' W 079°56'0 0.4
2017-Dec-11 21:53N 09°30' W 079°56'1 2.5
2017-Dec-11 21:30N 09°29' W 079°55'2 4.1
2017-Dec-11 21:00N 09°30' W 079°53'3 5.6
2017-Dec-11 20:29N 09°33' W 079°52'  
Track history (hours):
 
Tides and Currents Weather Stations Pressure Air Temp Water Temp Dewpoint Dewpoint Depression Visibility Wind Speed Wind Dir Waves Ship Positions

Ds Promoter

Last reported at 2017-Dec-12 19:58 UTC. Time now 2018-Jan-18 00:12 UTC.
Position N 09°12' W 079°54'.
Warning: this ship's position is 36 days out of date.

Length 228 m; draft 11.9 m.

Type: Tanker. MMSI: 636092413.

Date/timePositionNaut miles runAvg speedWind from/ knotsBaromVisibWave heightAir tempDewpointWater temp
2017-Dec-12 19:58N 09°12' W 079°54'3 7.0
2017-Dec-12 19:28N 09°15' W 079°55'2 3.3
2017-Dec-12 19:00N 09°16' W 079°55'0 0.3
2017-Dec-12 18:30N 09°16' W 079°55'0 0.3
2017-Dec-12 18:00N 09°17' W 079°55'0 0.2
2017-Dec-12 17:30N 09°17' W 079°55'0 0.3
2017-Dec-12 17:00N 09°17' W 079°55'0 0.1
2017-Dec-12 16:30N 09°17' W 079°55'0 0.7
2017-Dec-12 16:00N 09°17' W 079°55'2 3.7
2017-Dec-12 15:30N 09°19' W 079°55'4 7.2
2017-Dec-12 15:01N 09°23' W 079°55'0 0.8
2017-Dec-12 14:30N 09°22' W 079°55'2 3.3
2017-Dec-12 14:00N 09°24' W 079°55'3 7.0
2017-Dec-12 13:30N 09°27' W 079°55'2 0.2
2017-Dec-11 23:37N 09°30' W 079°56'0 0.0
2017-Dec-11 22:16N 09°30' W 079°56'0 0.4
2017-Dec-11 21:53N 09°30' W 079°56'1 2.5
2017-Dec-11 21:30N 09°29' W 079°55'2 4.1
2017-Dec-11 21:00N 09°30' W 079°53'3 5.6
2017-Dec-11 20:29N 09°33' W 079°52'  

Dump ship's entire track history